sensor_id;sensor_type;location;lat;lon;timestamp;pressure;altitude;pressure_sealevel;temperature;humidity
75543;BME280;64129;53.508;10.476;2024-03-23T00:55:28;100420.84;;;6.53;91.13
75543;BME280;64129;53.508;10.476;2024-03-23T00:57:54;100419.91;;;6.48;91.51
75543;BME280;64129;53.508;10.476;2024-03-23T01:00:20;100415.56;;;6.45;91.26
75543;BME280;64129;53.508;10.476;2024-03-23T01:02:46;100414.69;;;6.48;91.96
75543;BME280;64129;53.508;10.476;2024-03-23T01:05:12;100412.03;;;6.37;92.02
75543;BME280;64129;53.508;10.476;2024-03-23T01:07:38;100405.19;;;6.57;90.99
75543;BME280;64129;53.508;10.476;2024-03-23T01:10:04;100393.91;;;6.54;90.96
75543;BME280;64129;53.508;10.476;2024-03-23T01:12:36;100390.28;;;6.32;91.77
75543;BME280;64129;53.508;10.476;2024-03-23T01:15:02;100392.16;;;6.53;91.36
75543;BME280;64129;53.508;10.476;2024-03-23T01:17:28;100403.28;;;6.29;91.62
75543;BME280;64129;53.508;10.476;2024-03-23T01:20:04;100393.84;;;6.45;90.85
75543;BME280;64129;53.508;10.476;2024-03-23T01:22:39;100389.53;;;6.48;91.12
75543;BME280;64129;53.508;10.476;2024-03-23T01:25:05;100384.31;;;6.51;91.22
75543;BME280;64129;53.508;10.476;2024-03-23T01:27:31;100389.59;;;6.59;90.45
75543;BME280;64129;53.508;10.476;2024-03-23T01:29:58;100392.16;;;6.50;90.64
75543;BME280;64129;53.508;10.476;2024-03-23T01:32:33;100387.78;;;6.50;90.57
75543;BME280;64129;53.508;10.476;2024-03-23T01:34:59;100387.63;;;6.21;91.41
75543;BME280;64129;53.508;10.476;2024-03-23T01:37:25;100373.78;;;6.33;91.44
75543;BME280;64129;53.508;10.476;2024-03-23T01:39:50;100366.03;;;6.39;91.36
75543;BME280;64129;53.508;10.476;2024-03-23T01:42:16;100360.00;;;6.57;90.24
75543;BME280;64129;53.508;10.476;2024-03-23T01:44:43;100358.25;;;6.51;90.92
75543;BME280;64129;53.508;10.476;2024-03-23T01:47:09;100356.28;;;6.15;92.11
75543;BME280;64129;53.508;10.476;2024-03-23T01:49:42;100355.59;;;6.42;90.79
75543;BME280;64129;53.508;10.476;2024-03-23T01:52:08;100356.38;;;6.26;90.79
75543;BME280;64129;53.508;10.476;2024-03-23T01:54:35;100347.59;;;6.11;92.09
75543;BME280;64129;53.508;10.476;2024-03-23T01:57:01;100335.53;;;6.29;91.01
75543;BME280;64129;53.508;10.476;2024-03-23T01:59:31;100322.50;;;6.26;91.42
75543;BME280;64129;53.508;10.476;2024-03-23T02:02:00;100327.50;;;5.95;92.74
75543;BME280;64129;53.508;10.476;2024-03-23T02:04:30;100331.00;;;5.97;91.58
75543;BME280;64129;53.508;10.476;2024-03-23T02:07:02;100334.34;;;5.87;92.51
75543;BME280;64129;53.508;10.476;2024-03-23T02:09:37;100329.22;;;5.93;92.64
75543;BME280;64129;53.508;10.476;2024-03-23T02:12:04;100324.13;;;6.10;91.74
75543;BME280;64129;53.508;10.476;2024-03-23T02:14:44;100318.91;;;6.10;90.99
75543;BME280;64129;53.508;10.476;2024-03-23T02:17:10;100310.16;;;5.99;92.52
75543;BME280;64129;53.508;10.476;2024-03-23T02:19:42;100313.66;;;6.04;92.12
75543;BME280;64129;53.508;10.476;2024-03-23T02:22:08;100305.63;;;5.76;92.86
75543;BME280;64129;53.508;10.476;2024-03-23T02:24:39;100304.84;;;5.89;92.93
75543;BME280;64129;53.508;10.476;2024-03-23T02:27:05;100315.41;;;6.03;92.13
75543;BME280;64129;53.508;10.476;2024-03-23T02:29:31;100311.66;;;5.71;93.21
75543;BME280;64129;53.508;10.476;2024-03-23T02:32:00;100297.97;;;5.93;92.49
75543;BME280;64129;53.508;10.476;2024-03-23T02:34:27;100298.75;;;5.83;92.42
75543;BME280;64129;53.508;10.476;2024-03-23T02:36:52;100300.44;;;5.79;93.43
75543;BME280;64129;53.508;10.476;2024-03-23T02:39:18;100299.66;;;5.91;92.85
75543;BME280;64129;53.508;10.476;2024-03-23T02:41:47;100296.28;;;5.98;91.32
75543;BME280;64129;53.508;10.476;2024-03-23T02:44:13;100289.22;;;5.91;91.80
75543;BME280;64129;53.508;10.476;2024-03-23T02:46:48;100289.16;;;5.82;91.49
75543;BME280;64129;53.508;10.476;2024-03-23T02:49:14;100290.13;;;5.92;91.25
75543;BME280;64129;53.508;10.476;2024-03-23T02:51:47;100292.59;;;5.76;92.93
75543;BME280;64129;53.508;10.476;2024-03-23T02:54:17;100276.09;;;5.73;93.14
75543;BME280;64129;53.508;10.476;2024-03-23T02:56:46;100281.19;;;5.59;92.53
75543;BME280;64129;53.508;10.476;2024-03-23T02:59:11;100283.84;;;5.67;92.66
75543;BME280;64129;53.508;10.476;2024-03-23T03:01:37;100274.38;;;5.78;92.88
75543;BME280;64129;53.508;10.476;2024-03-23T03:04:03;100286.50;;;5.73;92.17
75543;BME280;64129;53.508;10.476;2024-03-23T03:06:37;100277.78;;;5.66;93.02
75543;BME280;64129;53.508;10.476;2024-03-23T03:09:03;100281.28;;;5.70;92.13
75543;BME280;64129;53.508;10.476;2024-03-23T03:11:32;100263.91;;;5.66;92.99
75543;BME280;64129;53.508;10.476;2024-03-23T03:13:58;100265.63;;;5.68;92.97
75543;BME280;64129;53.508;10.476;2024-03-23T03:16:26;100270.63;;;5.39;94.29
75543;BME280;64129;53.508;10.476;2024-03-23T03:18:59;100264.69;;;5.55;93.40
75543;BME280;64129;53.508;10.476;2024-03-23T03:21:25;100263.81;;;5.58;93.04
75543;BME280;64129;53.508;10.476;2024-03-23T03:23:56;100253.41;;;5.58;93.19
75543;BME280;64129;53.508;10.476;2024-03-23T03:26:22;100256.03;;;5.59;93.95
75543;BME280;64129;53.508;10.476;2024-03-23T03:28:52;100253.41;;;5.59;93.14
75543;BME280;64129;53.508;10.476;2024-03-23T03:31:18;100243.91;;;5.60;92.70
75543;BME280;64129;53.508;10.476;2024-03-23T03:33:45;100238.78;;;5.74;91.01
75543;BME280;64129;53.508;10.476;2024-03-23T03:36:11;100246.50;;;5.60;93.14
75543;BME280;64129;53.508;10.476;2024-03-23T03:38:37;100239.56;;;5.62;92.64
75543;BME280;64129;53.508;10.476;2024-03-23T03:41:06;100237.88;;;5.67;92.02
75543;BME280;64129;53.508;10.476;2024-03-23T03:43:36;100243.81;;;5.49;93.36
75543;BME280;64129;53.508;10.476;2024-03-23T03:46:02;100241.91;;;5.31;94.12
75543;BME280;64129;53.508;10.476;2024-03-23T03:48:31;100230.72;;;5.38;93.77
75543;BME280;64129;53.508;10.476;2024-03-23T03:51:00;100226.38;;;5.37;94.18
75543;BME280;64129;53.508;10.476;2024-03-23T03:53:26;100219.44;;;5.38;93.29
75543;BME280;64129;53.508;10.476;2024-03-23T03:55:52;100216.94;;;5.50;93.41
75543;BME280;64129;53.508;10.476;2024-03-23T03:58:17;100218.59;;;5.42;93.41
75543;BME280;64129;53.508;10.476;2024-03-23T04:00:46;100214.31;;;5.47;93.40
75543;BME280;64129;53.508;10.476;2024-03-23T04:03:12;100217.75;;;5.42;93.48
75543;BME280;64129;53.508;10.476;2024-03-23T04:05:41;100213.44;;;5.48;93.32
75543;BME280;64129;53.508;10.476;2024-03-23T04:08:07;100213.41;;;5.42;94.06
75543;BME280;64129;53.508;10.476;2024-03-23T04:10:42;100209.16;;;5.55;92.05
75543;BME280;64129;53.508;10.476;2024-03-23T04:13:08;100204.75;;;5.46;93.13
75543;BME280;64129;53.508;10.476;2024-03-23T04:15:43;100206.47;;;5.43;93.49
75543;BME280;64129;53.508;10.476;2024-03-23T04:18:09;100196.09;;;5.49;92.82
75543;BME280;64129;53.508;10.476;2024-03-23T04:20:35;100212.59;;;5.52;92.72
75543;BME280;64129;53.508;10.476;2024-03-23T04:23:01;100212.59;;;5.51;92.02
75543;BME280;64129;53.508;10.476;2024-03-23T04:25:27;100212.56;;;5.49;92.62
75543;BME280;64129;53.508;10.476;2024-03-23T04:27:56;100204.81;;;5.58;92.53
75543;BME280;64129;53.508;10.476;2024-03-23T04:30:22;100193.53;;;5.55;91.58
75543;BME280;64129;53.508;10.476;2024-03-23T04:32:59;100188.25;;;5.41;92.10
75543;BME280;64129;53.508;10.476;2024-03-23T04:35:29;100183.88;;;5.38;93.39
75543;BME280;64129;53.508;10.476;2024-03-23T04:38:04;100187.22;;;5.18;93.70
75543;BME280;64129;53.508;10.476;2024-03-23T04:40:36;100191.63;;;5.29;93.87
75543;BME280;64129;53.508;10.476;2024-03-23T04:43:05;100184.69;;;5.31;93.02
75543;BME280;64129;53.508;10.476;2024-03-23T04:45:41;100183.78;;;5.25;93.54
75543;BME280;64129;53.508;10.476;2024-03-23T04:48:07;100182.22;;;5.50;92.70
75543;BME280;64129;53.508;10.476;2024-03-23T04:50:42;100190.72;;;5.23;94.11
75543;BME280;64129;53.508;10.476;2024-03-23T04:53:08;100193.44;;;5.41;92.13
75543;BME280;64129;53.508;10.476;2024-03-23T04:55:34;100194.94;;;5.10;93.36
75543;BME280;64129;53.508;10.476;2024-03-23T04:58:00;100188.06;;;5.20;94.23
75543;BME280;64129;53.508;10.476;2024-03-23T05:00:26;100187.28;;;5.30;93.49
75543;BME280;64129;53.508;10.476;2024-03-23T05:02:55;100194.00;;;5.03;94.75
75543;BME280;64129;53.508;10.476;2024-03-23T05:05:24;100191.53;;;5.19;93.60
75543;BME280;64129;53.508;10.476;2024-03-23T05:07:56;100181.13;;;5.22;93.80
75543;BME280;64129;53.508;10.476;2024-03-23T05:10:22;100175.22;;;5.41;92.89
75543;BME280;64129;53.508;10.476;2024-03-23T05:12:57;100181.28;;;5.38;93.31
75543;BME280;64129;53.508;10.476;2024-03-23T05:15:23;100174.31;;;5.34;92.49
75543;BME280;64129;53.508;10.476;2024-03-23T05:17:57;100188.19;;;5.32;94.33
75543;BME280;64129;53.508;10.476;2024-03-23T05:20:23;100182.13;;;5.41;93.55
75543;BME280;64129;53.508;10.476;2024-03-23T05:22:55;100184.53;;;5.11;93.62
75543;BME280;64129;53.508;10.476;2024-03-23T05:25:24;100186.44;;;5.32;93.12
75543;BME280;64129;53.508;10.476;2024-03-23T05:27:50;100194.34;;;5.48;92.35
75543;BME280;64129;53.508;10.476;2024-03-23T05:30:16;100182.19;;;5.42;93.31
75543;BME280;64129;53.508;10.476;2024-03-23T05:32:48;100175.25;;;5.49;92.89
75543;BME280;64129;53.508;10.476;2024-03-23T05:35:14;100177.00;;;5.50;92.69
75543;BME280;64129;53.508;10.476;2024-03-23T05:37:46;100170.88;;;5.38;93.12
75543;BME280;64129;53.508;10.476;2024-03-23T05:40:12;100178.59;;;5.28;93.85
75543;BME280;64129;53.508;10.476;2024-03-23T05:42:46;100176.72;;;5.10;94.48
75543;BME280;64129;53.508;10.476;2024-03-23T05:45:11;100175.03;;;5.15;94.01
75543;BME280;64129;53.508;10.476;2024-03-23T05:47:41;100164.56;;;5.04;95.22
75543;BME280;64129;53.508;10.476;2024-03-23T05:50:07;100174.09;;;5.07;94.52
75543;BME280;64129;53.508;10.476;2024-03-23T05:52:35;100167.16;;;5.07;94.76
75543;BME280;64129;53.508;10.476;2024-03-23T05:55:01;100167.03;;;4.92;94.77
75543;BME280;64129;53.508;10.476;2024-03-23T05:57:36;100154.31;;;5.29;94.12
75543;BME280;64129;53.508;10.476;2024-03-23T06:00:06;100138.69;;;5.24;93.17
75543;BME280;64129;53.508;10.476;2024-03-23T06:02:40;100131.75;;;5.25;93.94
75543;BME280;64129;53.508;10.476;2024-03-23T06:05:06;100132.56;;;5.21;93.87
75543;BME280;64129;53.508;10.476;2024-03-23T06:07:33;100142.94;;;5.15;95.38
75543;BME280;64129;53.508;10.476;2024-03-23T06:10:08;100144.66;;;5.12;94.27
75543;BME280;64129;53.508;10.476;2024-03-23T06:12:37;100142.81;;;4.96;94.99
75543;BME280;64129;53.508;10.476;2024-03-23T06:15:03;100142.09;;;5.14;93.67
75543;BME280;64129;53.508;10.476;2024-03-23T06:17:36;100143.03;;;5.28;93.88
75543;BME280;64129;53.508;10.476;2024-03-23T06:20:06;100148.19;;;5.19;94.89
75543;BME280;64129;53.508;10.476;2024-03-23T06:22:32;100142.22;;;5.34;92.79
75543;BME280;64129;53.508;10.476;2024-03-23T06:25:08;100135.97;;;5.10;94.88
75543;BME280;64129;53.508;10.476;2024-03-23T06:27:37;100143.72;;;5.03;94.99
75543;BME280;64129;53.508;10.476;2024-03-23T06:30:07;100139.44;;;5.09;94.90
75543;BME280;64129;53.508;10.476;2024-03-23T06:32:33;100135.94;;;5.04;96.04
75543;BME280;64129;53.508;10.476;2024-03-23T06:35:02;100133.56;;;5.36;94.23
75543;BME280;64129;53.508;10.476;2024-03-23T06:37:35;100136.03;;;5.21;94.26
75543;BME280;64129;53.508;10.476;2024-03-23T06:40:08;100127.41;;;5.25;94.15
75543;BME280;64129;53.508;10.476;2024-03-23T06:42:35;100135.34;;;5.48;93.40
75543;BME280;64129;53.508;10.476;2024-03-23T06:45:02;100135.34;;;5.47;94.04
75543;BME280;64129;53.508;10.476;2024-03-23T06:47:41;100131.91;;;5.51;94.09
75543;BME280;64129;53.508;10.476;2024-03-23T06:50:07;100131.13;;;5.67;93.40
75543;BME280;64129;53.508;10.476;2024-03-23T06:52:33;100129.28;;;5.46;94.59
75543;BME280;64129;53.508;10.476;2024-03-23T06:54:59;100134.53;;;5.52;94.60
75543;BME280;64129;53.508;10.476;2024-03-23T06:57:25;100123.22;;;5.49;94.75
75543;BME280;64129;53.508;10.476;2024-03-23T06:59:54;100132.84;;;5.68;93.42
75543;BME280;64129;53.508;10.476;2024-03-23T07:02:20;100131.94;;;5.58;93.75
75543;BME280;64129;53.508;10.476;2024-03-23T07:04:45;100132.00;;;5.65;94.02
75543;BME280;64129;53.508;10.476;2024-03-23T07:07:11;100138.16;;;5.86;93.18
75543;BME280;64129;53.508;10.476;2024-03-23T07:09:44;100141.75;;;6.07;92.85
75543;BME280;64129;53.508;10.476;2024-03-23T07:12:10;100140.00;;;6.04;94.00
75543;BME280;64129;53.508;10.476;2024-03-23T07:14:35;100128.69;;;5.95;92.37
75543;BME280;64129;53.508;10.476;2024-03-23T07:17:04;100126.13;;;6.08;93.44
75543;BME280;64129;53.508;10.476;2024-03-23T07:19:37;100125.94;;;5.78;94.23
75543;BME280;64129;53.508;10.476;2024-03-23T07:22:02;100124.38;;;6.09;91.53
75543;BME280;64129;53.508;10.476;2024-03-23T07:24:32;100124.34;;;6.06;92.87
75543;BME280;64129;53.508;10.476;2024-03-23T07:26:58;100133.09;;;6.12;91.91
75543;BME280;64129;53.508;10.476;2024-03-23T07:29:24;100132.13;;;5.97;92.33
75543;BME280;64129;53.508;10.476;2024-03-23T07:31:53;100132.19;;;6.10;92.44
75543;BME280;64129;53.508;10.476;2024-03-23T07:34:18;100129.63;;;6.24;91.23
75543;BME280;64129;53.508;10.476;2024-03-23T07:36:51;100129.69;;;6.41;90.89
75543;BME280;64129;53.508;10.476;2024-03-23T07:39:17;100117.56;;;6.63;89.62
75543;BME280;64129;53.508;10.476;2024-03-23T07:41:49;100116.66;;;6.41;89.75
75543;BME280;64129;53.508;10.476;2024-03-23T07:44:15;100110.56;;;6.42;89.71
75543;BME280;64129;53.508;10.476;2024-03-23T07:46:41;100115.78;;;6.39;89.41
75543;BME280;64129;53.508;10.476;2024-03-23T07:49:07;100101.03;;;6.53;89.41
75543;BME280;64129;53.508;10.476;2024-03-23T07:51:32;100106.25;;;6.62;89.71
75543;BME280;64129;53.508;10.476;2024-03-23T07:54:02;100104.53;;;6.78;89.78
75543;BME280;64129;53.508;10.476;2024-03-23T07:56:35;100110.59;;;6.83;89.32
75543;BME280;64129;53.508;10.476;2024-03-23T07:59:04;100108.88;;;6.78;88.73
75543;BME280;64129;53.508;10.476;2024-03-23T08:01:29;100110.59;;;6.79;89.07
75543;BME280;64129;53.508;10.476;2024-03-23T08:03:56;100101.91;;;6.97;88.66
75543;BME280;64129;53.508;10.476;2024-03-23T08:06:22;100098.41;;;7.02;88.22
75543;BME280;64129;53.508;10.476;2024-03-23T08:08:57;100093.16;;;7.28;87.53
75543;BME280;64129;53.508;10.476;2024-03-23T08:11:39;100111.47;;;7.14;86.86
75543;BME280;64129;53.508;10.476;2024-03-23T08:14:08;100107.00;;;7.59;85.39
75543;BME280;64129;53.508;10.476;2024-03-23T08:16:44;100099.91;;;7.93;85.47
75543;BME280;64129;53.508;10.476;2024-03-23T08:19:19;100095.53;;;7.99;85.35
75543;BME280;64129;53.508;10.476;2024-03-23T08:21:48;100085.00;;;8.14;84.53
75543;BME280;64129;53.508;10.476;2024-03-23T08:24:16;100088.34;;;8.39;84.23
75543;BME280;64129;53.508;10.476;2024-03-23T08:26:42;100081.25;;;8.58;83.72
75543;BME280;64129;53.508;10.476;2024-03-23T08:29:08;100080.44;;;8.51;82.87
75543;BME280;64129;53.508;10.476;2024-03-23T08:31:40;100083.78;;;8.68;81.16
75543;BME280;64129;53.508;10.476;2024-03-23T08:34:06;100084.00;;;8.38;82.22
75543;BME280;64129;53.508;10.476;2024-03-23T08:36:35;100086.34;;;8.78;80.05
75543;BME280;64129;53.508;10.476;2024-03-23T08:39:01;100081.84;;;8.92;79.22
75543;BME280;64129;53.508;10.476;2024-03-23T08:41:30;100070.31;;;9.11;80.75
75543;BME280;64129;53.508;10.476;2024-03-23T08:44:02;100082.53;;;9.14;77.09
75543;BME280;64129;53.508;10.476;2024-03-23T08:46:27;100077.16;;;9.26;77.19
75543;BME280;64129;53.508;10.476;2024-03-23T08:48:56;100072.19;;;9.00;78.22
75543;BME280;64129;53.508;10.476;2024-03-23T08:51:22;100062.56;;;8.99;78.16
75543;BME280;64129;53.508;10.476;2024-03-23T08:53:48;100071.38;;;8.93;77.45
75543;BME280;64129;53.508;10.476;2024-03-23T08:56:14;100060.88;;;8.97;77.92
75543;BME280;64129;53.508;10.476;2024-03-23T08:58:40;100057.25;;;9.08;72.46
75543;BME280;64129;53.508;10.476;2024-03-23T09:01:12;100061.38;;;9.32;71.51
75543;BME280;64129;53.508;10.476;2024-03-23T09:03:41;100048.47;;;9.15;74.60
75543;BME280;64129;53.508;10.476;2024-03-23T09:06:12;100048.28;;;9.32;76.44
75543;BME280;64129;53.508;10.476;2024-03-23T09:08:41;100054.09;;;9.56;72.48
75543;BME280;64129;53.508;10.476;2024-03-23T09:11:14;100055.50;;;9.86;70.65
75543;BME280;64129;53.508;10.476;2024-03-23T09:13:40;100044.88;;;9.98;74.38
75543;BME280;64129;53.508;10.476;2024-03-23T09:16:10;100054.28;;;9.43;70.35
75543;BME280;64129;53.508;10.476;2024-03-23T09:18:39;100048.28;;;9.34;72.82
75543;BME280;64129;53.508;10.476;2024-03-23T09:21:11;100047.16;;;9.55;75.16
75543;BME280;64129;53.508;10.476;2024-03-23T09:23:39;100048.28;;;10.02;69.03
75543;BME280;64129;53.508;10.476;2024-03-23T09:26:08;100047.16;;;10.19;69.56
75543;BME280;64129;53.508;10.476;2024-03-23T09:28:41;100060.94;;;10.37;65.92
75543;BME280;64129;53.508;10.476;2024-03-23T09:31:08;100041.56;;;10.45;67.22
75543;BME280;64129;53.508;10.476;2024-03-23T09:33:39;100039.56;;;10.03;68.24
75543;BME280;64129;53.508;10.476;2024-03-23T09:36:09;100044.22;;;10.42;71.09
75543;BME280;64129;53.508;10.476;2024-03-23T09:38:55;100032.44;;;10.11;63.92
75543;BME280;64129;53.508;10.476;2024-03-23T09:41:26;100052.38;;;10.80;63.73
75543;BME280;64129;53.508;10.476;2024-03-23T09:44:02;100036.94;;;10.61;63.92
75543;BME280;64129;53.508;10.476;2024-03-23T09:46:31;100034.56;;;10.97;61.04
75543;BME280;64129;53.508;10.476;2024-03-23T09:49:09;100035.16;;;10.62;63.35
75543;BME280;64129;53.508;10.476;2024-03-23T09:51:36;100038.00;;;10.48;62.18
75543;BME280;64129;53.508;10.476;2024-03-23T09:54:06;100034.78;;;10.32;65.35
75543;BME280;64129;53.508;10.476;2024-03-23T09:56:32;100024.59;;;10.09;66.87
75543;BME280;64129;53.508;10.476;2024-03-23T09:59:05;100029.13;;;9.98;69.19
75543;BME280;64129;53.508;10.476;2024-03-23T10:01:42;100029.50;;;9.70;62.68
75543;BME280;64129;53.508;10.476;2024-03-23T10:04:08;100016.19;;;10.95;65.66
75543;BME280;64129;53.508;10.476;2024-03-23T10:06:40;100021.94;;;10.69;59.71
75543;BME280;64129;53.508;10.476;2024-03-23T10:09:16;100003.19;;;11.36;59.36
75543;BME280;64129;53.508;10.476;2024-03-23T10:11:53;99994.00;;;11.97;64.72
75543;BME280;64129;53.508;10.476;2024-03-23T10:14:36;99995.84;;;11.53;63.31
75543;BME280;64129;53.508;10.476;2024-03-23T10:19:47;99996.66;;;10.62;60.50
75543;BME280;64129;53.508;10.476;2024-03-23T10:22:20;100004.69;;;10.55;60.72
75543;BME280;64129;53.508;10.476;2024-03-23T10:24:46;99997.41;;;11.62;62.47
75543;BME280;64129;53.508;10.476;2024-03-23T10:27:17;99990.38;;;12.03;59.54
75543;BME280;64129;53.508;10.476;2024-03-23T10:29:48;99994.09;;;11.94;59.72
75543;BME280;64129;53.508;10.476;2024-03-23T10:32:18;99976.84;;;12.19;52.41
75543;BME280;64129;53.508;10.476;2024-03-23T10:34:47;99992.91;;;11.65;55.60
75543;BME280;64129;53.508;10.476;2024-03-23T10:37:13;99991.53;;;11.49;55.61
75543;BME280;64129;53.508;10.476;2024-03-23T10:39:45;99986.28;;;11.91;56.70
75543;BME280;64129;53.508;10.476;2024-03-23T10:42:14;99972.28;;;12.28;60.17
75543;BME280;64129;53.508;10.476;2024-03-23T10:44:42;99977.22;;;12.04;50.94
75543;BME280;64129;53.508;10.476;2024-03-23T10:47:07;99972.50;;;12.17;50.01
75543;BME280;64129;53.508;10.476;2024-03-23T10:49:38;99965.63;;;12.13;52.28
75543;BME280;64129;53.508;10.476;2024-03-23T10:52:05;99968.59;;;12.69;50.07
75543;BME280;64129;53.508;10.476;2024-03-23T10:54:42;99960.34;;;13.74;57.30
75543;BME280;64129;53.508;10.476;2024-03-23T10:57:23;99964.00;;;13.41;48.09
75543;BME280;64129;53.508;10.476;2024-03-23T10:59:52;99957.19;;;13.63;49.08
75543;BME280;64129;53.508;10.476;2024-03-23T11:02:21;99962.72;;;13.24;50.03
75543;BME280;64129;53.508;10.476;2024-03-23T11:04:54;99954.31;;;12.77;48.17
75543;BME280;64129;53.508;10.476;2024-03-23T11:07:35;99953.06;;;12.91;54.52
75543;BME280;64129;53.508;10.476;2024-03-23T11:10:33;99949.88;;;14.01;50.14
75543;BME280;64129;53.508;10.476;2024-03-23T11:13:21;99951.50;;;13.77;45.33
75543;BME280;64129;53.508;10.476;2024-03-23T11:15:50;99946.25;;;13.75;46.40
75543;BME280;64129;53.508;10.476;2024-03-23T11:18:28;99946.44;;;13.69;44.98
75543;BME280;64129;53.508;10.476;2024-03-23T11:20:57;99936.72;;;15.04;46.00
75543;BME280;64129;53.508;10.476;2024-03-23T11:23:29;99943.84;;;14.24;45.42
75543;BME280;64129;53.508;10.476;2024-03-23T11:25:55;99938.34;;;14.83;44.26
75543;BME280;64129;53.508;10.476;2024-03-23T11:28:21;99948.66;;;14.11;49.41
75543;BME280;64129;53.508;10.476;2024-03-23T11:30:53;99963.38;;;11.96;50.23
75543;BME280;64129;53.508;10.476;2024-03-23T11:33:19;99967.06;;;12.24;51.28
75543;BME280;64129;53.508;10.476;2024-03-23T11:35:45;99963.19;;;12.04;53.00
75543;BME280;64129;53.508;10.476;2024-03-23T11:38:18;99974.47;;;11.27;57.62
75543;BME280;64129;53.508;10.476;2024-03-23T11:40:48;99976.06;;;10.41;63.28
75543;BME280;64129;53.508;10.476;2024-03-23T11:43:19;99974.47;;;10.29;64.23
75543;BME280;64129;53.508;10.476;2024-03-23T11:45:51;99964.09;;;10.21;66.29
75543;BME280;64129;53.508;10.476;2024-03-23T11:48:24;99972.94;;;10.14;67.46
75543;BME280;64129;53.508;10.476;2024-03-23T11:50:54;99981.44;;;10.83;66.97
75543;BME280;64129;53.508;10.476;2024-03-23T11:53:25;99965.63;;;10.87;64.92
75543;BME280;64129;53.508;10.476;2024-03-23T11:55:59;99966.91;;;11.95;59.98
75543;BME280;64129;53.508;10.476;2024-03-23T11:58:27;99955.31;;;12.02;59.84
75543;BME280;64129;53.508;10.476;2024-03-23T12:00:57;99943.09;;;12.01;57.92
75543;BME280;64129;53.508;10.476;2024-03-23T12:03:24;99934.69;;;11.85;54.43
75543;BME280;64129;53.508;10.476;2024-03-23T12:06:04;99928.47;;;13.24;54.97
75543;BME280;64129;53.508;10.476;2024-03-23T12:08:34;99920.63;;;13.51;53.76
75543;BME280;64129;53.508;10.476;2024-03-23T12:11:17;99922.38;;;13.22;52.00
75543;BME280;64129;53.508;10.476;2024-03-23T12:13:45;99916.75;;;13.35;49.05
75543;BME280;64129;53.508;10.476;2024-03-23T12:16:20;99920.19;;;13.06;49.17
75543;BME280;64129;53.508;10.476;2024-03-23T12:18:53;99910.84;;;12.29;52.33
75543;BME280;64129;53.508;10.476;2024-03-23T12:21:20;99924.38;;;12.13;52.51
75543;BME280;64129;53.508;10.476;2024-03-23T12:23:51;99927.81;;;11.78;51.96
75543;BME280;64129;53.508;10.476;2024-03-23T12:26:20;99952.41;;;11.35;52.39
75543;BME280;64129;53.508;10.476;2024-03-23T12:28:46;99943.44;;;11.02;53.90
75543;BME280;64129;53.508;10.476;2024-03-23T12:31:11;99941.06;;;11.73;51.61
75543;BME280;64129;53.508;10.476;2024-03-23T12:33:37;99936.66;;;11.74;48.22
75543;BME280;64129;53.508;10.476;2024-03-23T12:36:09;99934.28;;;13.36;46.68
75543;BME280;64129;53.508;10.476;2024-03-23T12:38:36;99920.91;;;13.42;47.24
75543;BME280;64129;53.508;10.476;2024-03-23T12:41:02;99922.31;;;12.93;45.79
75543;BME280;64129;53.508;10.476;2024-03-23T12:43:33;99921.13;;;13.92;44.63
75543;BME280;64129;53.508;10.476;2024-03-23T12:46:10;99924.56;;;13.94;46.14
75543;BME280;64129;53.508;10.476;2024-03-23T12:48:40;99948.38;;;11.59;52.18
75543;BME280;64129;53.508;10.476;2024-03-23T12:51:10;99963.47;;;11.49;54.12
75543;BME280;64129;53.508;10.476;2024-03-23T12:53:36;99957.84;;;11.26;53.40
75543;BME280;64129;53.508;10.476;2024-03-23T12:56:02;99941.09;;;12.45;51.58
75543;BME280;64129;53.508;10.476;2024-03-23T12:58:29;99945.41;;;12.83;49.60
75543;BME280;64129;53.508;10.476;2024-03-23T13:00:58;99949.00;;;14.00;50.11
75543;BME280;64129;53.508;10.476;2024-03-23T13:03:28;99938.13;;;14.64;45.78
75543;BME280;64129;53.508;10.476;2024-03-23T13:05:56;99937.38;;;14.61;50.20
75543;BME280;64129;53.508;10.476;2024-03-23T13:08:22;99940.78;;;14.89;43.75
75543;BME280;64129;53.508;10.476;2024-03-23T13:10:57;99946.97;;;14.37;47.12
75543;BME280;64129;53.508;10.476;2024-03-23T13:13:23;99965.31;;;12.93;48.43
75543;BME280;64129;53.508;10.476;2024-03-23T13:15:50;99979.19;;;12.32;50.10
75543;BME280;64129;53.508;10.476;2024-03-23T13:18:19;99974.97;;;11.87;52.01
75543;BME280;64129;53.508;10.476;2024-03-23T13:20:45;99977.06;;;11.28;56.13
75543;BME280;64129;53.508;10.476;2024-03-23T13:23:11;99993.88;;;10.16;60.20
75543;BME280;64129;53.508;10.476;2024-03-23T13:25:36;100006.59;;;9.83;62.14
75543;BME280;64129;53.508;10.476;2024-03-23T13:28:03;99996.16;;;9.82;63.37
75543;BME280;64129;53.508;10.476;2024-03-23T13:30:32;99998.78;;;9.80;67.46
75543;BME280;64129;53.508;10.476;2024-03-23T13:33:01;100005.25;;;8.75;68.05
75543;BME280;64129;53.508;10.476;2024-03-23T13:35:27;100023.28;;;9.78;67.05
75543;BME280;64129;53.508;10.476;2024-03-23T13:37:53;100025.91;;;9.02;68.71
75543;BME280;64129;53.508;10.476;2024-03-23T13:40:19;100033.16;;;8.77;68.64
75543;BME280;64129;53.508;10.476;2024-03-23T13:42:45;100037.94;;;8.15;70.24
75543;BME280;64129;53.508;10.476;2024-03-23T13:45:11;100038.34;;;8.79;71.58
75543;BME280;64129;53.508;10.476;2024-03-23T13:47:43;100023.53;;;10.22;67.39
75543;BME280;64129;53.508;10.476;2024-03-23T13:50:09;100019.72;;;10.43;66.73
75543;BME280;64129;53.508;10.476;2024-03-23T13:52:35;100009.50;;;11.69;66.36
75543;BME280;64129;53.508;10.476;2024-03-23T13:55:10;100010.00;;;10.48;62.96
75543;BME280;64129;53.508;10.476;2024-03-23T13:57:39;100011.66;;;10.56;65.10